Time;durP1;ratioP1;P1;durP2;ratioP2;P2;SDS_P1;SDS_P2;PMS_P1;PMS_P2;Temp;Humidity;BMP_temperature;BMP_pressure;BME280_temperature;BME280_humidity;BME280_pressure;Samples;Min_cycle;Max_cycle;Signal;HPM_P1;HPM_P2
2022/08/04 00:02:02;;;;;;;9.55;2.80;;;23.80;28.40;;;;;;5011158;28;20745;-74
2022/08/04 00:04:47;;;;;;;7.88;2.40;;;23.90;28.30;;;;;;5011324;28;20389;-73
2022/08/04 00:07:28;;;;;;;7.70;2.75;;;23.90;28.30;;;;;;5011288;28;20727;-75
2022/08/04 00:10:04;;;;;;;11.77;2.90;;;23.80;28.60;;;;;;5016181;28;20873;-75
2022/08/04 00:12:32;;;;;;;10.73;3.00;;;23.80;28.40;;;;;;5034613;28;20392;-74
2022/08/04 00:15:03;;;;;;;11.33;3.10;;;23.60;29.00;;;;;;5034126;28;20448;-74
2022/08/04 00:17:43;;;;;;;8.07;2.60;;;23.60;29.20;;;;;;5021847;28;20381;-75
2022/08/04 00:20:11;;;;;;;10.00;2.43;;;23.80;29.20;;;;;;5016418;28;20387;-74
2022/08/04 00:22:39;;;;;;;8.85;3.00;;;23.80;28.70;;;;;;5014780;28;20388;-74
2022/08/04 00:25:05;;;;;;;11.00;2.90;;;23.80;28.50;;;;;;5015226;28;20400;-74
2022/08/04 00:27:32;;;;;;;11.80;2.13;;;23.90;27.10;;;;;;5014927;28;20413;-75
2022/08/04 00:29:58;;;;;;;13.90;2.90;;;23.90;27.40;;;;;;5014797;28;20381;-76
2022/08/04 00:32:26;;;;;;;15.03;2.90;;;24.00;27.00;;;;;;5014825;28;20695;-75
2022/08/04 00:34:56;;;;;;;12.55;2.55;;;24.10;26.90;;;;;;5014684;28;20384;-74
2022/08/04 00:37:22;;;;;;;11.73;3.00;;;24.10;26.40;;;;;;5014607;28;20403;-74
2022/08/04 00:39:48;;;;;;;10.52;2.72;;;24.10;26.00;;;;;;5014453;28;20419;-74
2022/08/04 00:42:42;;;;;;;9.07;2.90;;;24.30;25.10;;;;;;5014626;28;20473;-74
2022/08/04 00:45:36;;;;;;;11.70;2.67;;;24.50;24.90;;;;;;5014583;28;20730;-74
2022/08/04 00:48:20;;;;;;;9.60;2.40;;;24.50;24.60;;;;;;5015242;28;20499;-74
2022/08/04 00:51:20;;;;;;;13.23;2.27;;;24.50;25.20;;;;;;5014703;28;20388;-74
2022/08/04 00:53:57;;;;;;;13.60;2.55;;;24.50;24.60;;;;;;5014759;28;20388;-74
2022/08/04 00:56:47;;;;;;;12.23;2.70;;;24.40;25.50;;;;;;5014319;28;20472;-74
2022/08/04 00:59:28;;;;;;;15.98;3.15;;;24.20;26.00;;;;;;5014074;28;20443;-74
2022/08/04 01:02:09;;;;;;;10.48;2.58;;;24.30;25.70;;;;;;5012691;28;20443;-74
2022/08/04 01:04:48;;;;;;;10.68;2.75;;;24.30;25.80;;;;;;5013028;28;20400;-75
2022/08/04 01:07:30;;;;;;;12.52;2.90;;;24.30;25.90;;;;;;5015003;28;20525;-74
2022/08/04 01:10:15;;;;;;;9.20;2.30;;;24.20;25.70;;;;;;5014607;28;20389;-74
2022/08/04 01:13:11;;;;;;;7.57;2.55;;;24.10;26.10;;;;;;5013990;28;20901;-74
2022/08/04 01:15:42;;;;;;;13.85;3.10;;;24.10;25.90;;;;;;5013968;28;20850;-74
2022/08/04 01:18:19;;;;;;;12.32;2.90;;;24.20;25.60;;;;;;5013982;28;20389;-74
2022/08/04 01:21:18;;;;;;;8.87;2.73;;;24.20;25.70;;;;;;5012846;28;20511;-74
2022/08/04 01:23:52;;;;;;;11.50;3.03;;;24.00;26.20;;;;;;5012592;28;20385;-74
2022/08/04 01:26:39;;;;;;;8.50;2.45;;;24.10;26.10;;;;;;5013747;28;20439;-74
2022/08/04 01:29:08;;;;;;;13.38;3.10;;;24.10;26.00;;;;;;5011907;28;20408;-74
2022/08/04 01:32:06;;;;;;;10.27;2.70;;;24.10;25.90;;;;;;5013524;28;20526;-75
2022/08/04 01:34:46;;;;;;;11.30;3.03;;;24.10;25.50;;;;;;5012620;28;20823;-74
2022/08/04 01:37:20;;;;;;;9.13;3.00;;;24.20;25.40;;;;;;5013721;28;20892;-74
2022/08/04 01:40:02;;;;;;;9.23;2.70;;;24.20;25.30;;;;;;5014598;28;20908;-74
2022/08/04 01:42:31;;;;;;;13.07;2.63;;;24.20;25.30;;;;;;5037196;28;20395;-73
2022/08/04 01:44:59;;;;;;;10.63;2.30;;;24.30;25.10;;;;;;5037480;28;20460;-74
2022/08/04 01:47:28;;;;;;;10.03;3.03;;;24.20;25.50;;;;;;5024806;28;20780;-74
2022/08/04 01:50:09;;;;;;;10.77;2.70;;;24.00;25.90;;;;;;5013465;28;20767;-74
2022/08/04 01:52:37;;;;;;;9.77;2.72;;;24.00;26.10;;;;;;5013943;28;20393;-74
2022/08/04 01:55:09;;;;;;;14.30;2.90;;;23.90;26.50;;;;;;5014169;28;20385;-74
2022/08/04 01:57:43;;;;;;;8.70;2.53;;;23.80;27.00;;;;;;5014167;28;20881;-74
2022/08/04 02:00:15;;;;;;;8.48;2.58;;;23.70;27.30;;;;;;5040904;22;20784;-76
2022/08/04 02:02:41;;;;;;;10.63;2.70;;;23.60;27.70;;;;;;5055486;28;20873;-75
2022/08/04 02:05:11;;;;;;;9.33;2.90;;;23.60;27.90;;;;;;5058178;28;20427;-77
2022/08/04 02:07:44;;;;;;;16.27;2.95;;;23.50;28.30;;;;;;5057790;28;20498;-77
2022/08/04 02:10:48;;;;;;;11.60;3.10;;;23.40;28.60;;;;;;5058986;28;20412;-76
2022/08/04 02:13:52;;;;;;;10.55;3.05;;;23.40;29.20;;;;;;5057850;28;20381;-77
2022/08/04 02:16:30;;;;;;;12.15;2.70;;;23.30;30.00;;;;;;5044195;28;20377;-78
2022/08/04 02:19:07;;;;;;;14.98;2.78;;;23.20;29.70;;;;;;5054616;28;20476;-76
2022/08/04 02:21:34;;;;;;;13.90;2.70;;;23.10;30.10;;;;;;5054411;28;20385;-75
2022/08/04 02:24:05;;;;;;;11.55;3.20;;;23.10;30.30;;;;;;5055642;28;20477;-76
2022/08/04 02:26:33;;;;;;;10.70;3.00;;;23.10;30.50;;;;;;5053735;28;20468;-77
2022/08/04 02:29:16;;;;;;;11.23;3.20;;;23.00;30.80;;;;;;5056586;28;20435;-78
2022/08/04 02:31:47;;;;;;;10.57;3.13;;;23.00;31.00;;;;;;5053777;28;20389;-77
2022/08/04 02:34:46;;;;;;;10.43;3.10;;;23.00;31.00;;;;;;5054193;28;20394;-77
2022/08/04 02:37:15;;;;;;;10.63;3.30;;;22.90;31.50;;;;;;5055424;28;20377;-77
2022/08/04 02:39:42;;;;;;;14.73;2.75;;;22.90;31.90;;;;;;5055556;28;20870;-77
2022/08/04 02:42:11;;;;;;;17.98;3.10;;;22.80;32.40;;;;;;5054308;28;20389;-77
2022/08/04 02:44:38;;;;;;;11.30;3.58;;;22.70;32.90;;;;;;5055490;28;20382;-78
2022/08/04 02:47:05;;;;;;;10.40;2.80;;;22.60;33.30;;;;;;5056644;28;20730;-76
2022/08/04 02:49:35;;;;;;;11.43;3.38;;;22.50;34.10;;;;;;5055894;28;20418;-76
2022/08/04 02:52:03;;;;;;;11.43;3.35;;;22.40;34.70;;;;;;5055172;28;20387;-77
2022/08/04 02:54:33;;;;;;;10.10;3.45;;;22.50;34.70;;;;;;5054871;28;20381;-77
2022/08/04 02:57:00;;;;;;;8.40;3.17;;;22.40;35.00;;;;;;5053847;28;20393;-77
2022/08/04 02:59:28;;;;;;;16.17;3.35;;;22.30;35.70;;;;;;5054713;28;20394;-77
2022/08/04 03:01:56;;;;;;;7.10;3.17;;;22.30;35.90;;;;;;5054454;28;20447;-77
2022/08/04 03:04:49;;;;;;;16.45;4.18;;;22.30;36.20;;;;;;5056690;28;20413;-77
2022/08/04 03:07:46;;;;;;;9.57;3.70;;;22.10;37.10;;;;;;5062568;28;20472;-77
2022/08/04 03:10:21;;;;;;;12.18;3.80;;;22.10;37.50;;;;;;5058222;28;20793;-78
2022/08/04 03:13:15;;;;;;;10.23;3.47;;;22.20;37.00;;;;;;5053947;28;20443;-78
2022/08/04 03:15:44;;;;;;;11.20;3.47;;;22.20;37.60;;;;;;5064417;28;20381;-77
2022/08/04 03:18:56;;;;;;;9.07;3.00;;;21.90;38.80;;;;;;5062145;28;20430;-78
2022/08/04 03:21:43;;;;;;;15.43;3.60;;;21.90;39.80;;;;;;5046296;28;20762;-77
2022/08/04 03:24:46;;;;;;;10.93;4.10;;;21.90;39.80;;;;;;5055169;28;20409;-78
2022/08/04 03:28:02;;;;;;;12.13;3.30;;;21.70;41.60;;;;;;5055795;28;20389;-76
2022/08/04 03:30:51;;;;;;;14.20;4.35;;;21.50;43.10;;;;;;5049011;28;20408;-78
2022/08/04 03:34:01;;;;;;;15.00;3.80;;;21.60;42.50;;;;;;5054868;28;20390;-77
2022/08/04 03:37:02;;;;;;;9.52;3.72;;;21.50;43.00;;;;;;5042960;28;20390;-75
2022/08/04 03:39:46;;;;;;;16.30;4.72;;;21.40;43.70;;;;;;5058319;28;20397;-77
2022/08/04 03:42:30;;;;;;;11.40;4.10;;;21.40;44.90;;;;;;5054441;28;20396;-78
2022/08/04 03:45:34;;;;;;;8.50;4.00;;;21.60;43.40;;;;;;5054425;28;20412;-78
2022/08/04 03:48:37;;;;;;;9.32;3.25;;;21.80;41.60;;;;;;5054945;28;20402;-77
2022/08/04 03:54:50;;;;;;;9.90;3.70;;;21.60;42.60;;;;;;5054365;28;20377;-77
2022/08/04 03:57:24;;;;;;;7.03;3.70;;;21.70;43.20;;;;;;5055277;28;20378;-78
2022/08/04 04:00:08;;;;;;;9.93;3.28;;;21.60;43.50;;;;;;5053766;28;20408;-77
2022/08/04 04:02:33;;;;;;;9.55;3.50;;;21.50;44.30;;;;;;5053501;28;20374;-76
2022/08/04 04:05:19;;;;;;;8.37;4.07;;;21.40;45.00;;;;;;5054187;28;20464;-78
2022/08/04 04:07:44;;;;;;;9.70;3.50;;;21.30;46.00;;;;;;5054318;28;20934;-77
2022/08/04 04:10:30;;;;;;;11.83;4.10;;;21.20;47.20;;;;;;5060435;28;20389;-76
2022/08/04 04:13:41;;;;;;;12.23;4.10;;;21.20;47.90;;;;;;5055151;28;20385;-77
2022/08/04 04:16:36;;;;;;;11.88;4.00;;;21.20;48.60;;;;;;5054809;28;20439;-78
2022/08/04 04:19:52;;;;;;;7.23;3.60;;;21.30;48.80;;;;;;5052819;28;20398;-77
2022/08/04 04:22:54;;;;;;;17.17;3.97;;;21.20;48.20;;;;;;5054378;28;20396;-78
2022/08/04 04:25:32;;;;;;;9.82;4.32;;;21.30;47.90;;;;;;5052146;28;20393;-77
2022/08/04 04:28:23;;;;;;;7.28;3.70;;;21.30;47.50;;;;;;5051456;28;20882;-77
2022/08/04 04:31:26;;;;;;;11.20;3.67;;;21.30;47.50;;;;;;5051512;28;20383;-76
2022/08/04 04:34:04;;;;;;;10.88;4.00;;;21.30;46.80;;;;;;5053199;28;20377;-76
2022/08/04 04:36:36;;;;;;;9.68;3.70;;;21.40;46.70;;;;;;5052320;28;20425;-77
2022/08/04 04:39:39;;;;;;;12.90;4.30;;;21.50;45.80;;;;;;5053607;28;20385;-77
2022/08/04 04:42:28;;;;;;;11.60;4.35;;;21.50;45.80;;;;;;5054203;28;20388;-77
2022/08/04 04:45:13;;;;;;;12.88;4.40;;;21.60;45.70;;;;;;5057540;28;20386;-77
2022/08/04 04:48:04;;;;;;;8.70;4.03;;;21.60;45.30;;;;;;5069961;28;20401;-76
2022/08/04 04:50:51;;;;;;;8.45;4.45;;;21.70;44.50;;;;;;5056850;28;20881;-77
2022/08/04 04:53:50;;;;;;;6.30;3.93;;;21.70;44.80;;;;;;5055930;28;20431;-77
2022/08/04 04:56:49;;;;;;;11.03;4.07;;;21.80;43.90;;;;;;5054040;28;20461;-77
2022/08/04 04:59:20;;;;;;;11.63;4.57;;;21.90;43.10;;;;;;5054586;28;20520;-76
2022/08/04 05:02:13;;;;;;;9.43;4.50;;;22.00;42.90;;;;;;5056941;28;20503;-78
2022/08/04 05:05:05;;;;;;;10.27;4.50;;;22.00;42.60;;;;;;5059484;28;20393;-77
2022/08/04 05:07:57;;;;;;;10.02;4.20;;;22.00;43.00;;;;;;5058015;28;20381;-78
2022/08/04 05:10:41;;;;;;;12.43;4.97;;;22.10;42.30;;;;;;5058457;28;20461;-79
2022/08/04 05:13:28;;;;;;;8.85;4.40;;;22.10;41.40;;;;;;5062698;28;20384;-78
2022/08/04 05:15:59;;;;;;;13.93;4.78;;;22.30;41.10;;;;;;5064018;28;20397;-77
2022/08/04 05:18:29;;;;;;;13.98;5.07;;;22.30;40.70;;;;;;5058135;28;20866;-78
2022/08/04 05:21:03;;;;;;;9.73;4.60;;;22.40;40.50;;;;;;5054907;28;20417;-77
2022/08/04 05:23:36;;;;;;;11.45;4.47;;;22.40;40.00;;;;;;5054209;28;20388;-77
2022/08/04 05:26:11;;;;;;;8.98;4.60;;;22.50;39.70;;;;;;5055694;28;20384;-76
2022/08/04 05:28:50;;;;;;;12.05;4.85;;;22.70;39.20;;;;;;5056699;28;20516;-77
2022/08/04 05:31:27;;;;;;;9.93;4.70;;;22.80;38.30;;;;;;5054929;28;20400;-77
2022/08/04 05:33:56;;;;;;;11.80;4.45;;;22.90;37.60;;;;;;5056370;28;20385;-77
2022/08/04 05:36:29;;;;;;;11.75;4.70;;;23.00;36.90;;;;;;5055291;28;20386;-76
2022/08/04 05:39:00;;;;;;;11.45;4.50;;;23.10;37.60;;;;;;5054281;28;20401;-78
2022/08/04 05:41:27;;;;;;;6.72;4.10;;;23.10;36.20;;;;;;5054249;28;20789;-78
2022/08/04 05:43:55;;;;;;;9.40;4.70;;;23.20;36.10;;;;;;5053898;28;20388;-77
2022/08/04 05:46:21;;;;;;;7.63;4.03;;;23.30;36.60;;;;;;5054685;28;20490;-76
2022/08/04 05:48:48;;;;;;;12.52;4.60;;;23.30;35.10;;;;;;5055265;28;20409;-77
2022/08/04 05:51:15;;;;;;;12.88;5.43;;;23.30;34.80;;;;;;5056442;28;20421;-77
2022/08/04 05:53:43;;;;;;;10.90;5.20;;;23.30;35.00;;;;;;5056255;28;20456;-77
2022/08/04 05:56:10;;;;;;;8.43;4.60;;;23.20;35.10;;;;;;5056641;28;20385;-77
2022/08/04 05:58:37;;;;;;;10.02;5.00;;;23.20;35.90;;;;;;5057194;28;20393;-77
2022/08/04 06:01:04;;;;;;;7.47;5.40;;;23.20;35.80;;;;;;5056624;28;20462;-77
2022/08/04 06:03:31;;;;;;;10.65;5.13;;;23.10;36.20;;;;;;5056702;28;20444;-77
2022/08/04 06:05:58;;;;;;;12.13;5.70;;;23.00;36.60;;;;;;5057274;28;20401;-77
2022/08/04 06:08:24;;;;;;;12.52;5.00;;;23.00;36.80;;;;;;5056590;28;20480;-77
2022/08/04 06:10:51;;;;;;;7.47;4.70;;;23.00;37.20;;;;;;5055094;28;20396;-77
2022/08/04 06:13:24;;;;;;;12.63;4.97;;;23.10;37.20;;;;;;5055273;28;20392;-78
2022/08/04 06:15:51;;;;;;;13.13;4.93;;;23.20;36.70;;;;;;5055083;28;20390;-78
2022/08/04 06:18:17;;;;;;;9.57;5.30;;;23.30;36.10;;;;;;5056122;28;20451;-78
2022/08/04 06:20:45;;;;;;;13.77;5.40;;;23.30;36.40;;;;;;5056588;28;20394;-78
2022/08/04 06:23:15;;;;;;;10.27;4.78;;;23.40;36.00;;;;;;5057954;28;20397;-77
2022/08/04 06:25:50;;;;;;;9.77;5.32;;;23.60;35.30;;;;;;5061433;28;20378;-75
2022/08/04 06:28:18;;;;;;;11.40;4.80;;;23.80;34.40;;;;;;5060015;28;20401;-76
2022/08/04 06:30:46;;;;;;;11.20;5.97;;;24.00;33.90;;;;;;5062184;28;20481;-77
2022/08/04 06:33:25;;;;;;;10.83;5.67;;;24.20;32.80;;;;;;5057648;28;20732;-78
2022/08/04 06:35:54;;;;;;;8.23;4.50;;;24.40;31.40;;;;;;5058281;28;20381;-79
2022/08/04 06:38:24;;;;;;;7.03;4.80;;;24.70;30.20;;;;;;5060758;28;20400;-76
2022/08/04 06:40:52;;;;;;;13.63;5.00;;;24.90;29.20;;;;;;5059709;28;20385;-74
2022/08/04 06:43:18;;;;;;;8.15;4.82;;;25.10;26.90;;;;;;5056707;28;20405;-78
2022/08/04 06:45:44;;;;;;;10.68;5.45;;;25.30;26.80;;;;;;5057345;28;20389;-76
2022/08/04 06:48:13;;;;;;;32.35;26.30;;;25.50;25.90;;;;;;5056149;28;20409;-77
2022/08/04 06:50:40;;;;;;;13.85;7.10;;;25.60;25.70;;;;;;5055087;28;20389;-78
2022/08/04 06:53:05;;;;;;;20.42;10.30;;;25.70;25.50;;;;;;5055794;28;20389;-77
2022/08/04 06:55:33;;;;;;;13.80;6.68;;;25.70;25.20;;;;;;5055909;28;20385;-77
2022/08/04 06:58:00;;;;;;;12.85;7.65;;;25.80;24.70;;;;;;5057157;28;20480;-76
2022/08/04 07:00:26;;;;;;;10.00;5.30;;;25.90;23.80;;;;;;5058531;28;20401;-77
2022/08/04 07:02:53;;;;;;;14.85;10.32;;;26.00;23.60;;;;;;5058512;28;20424;-77
2022/08/04 07:05:20;;;;;;;13.52;9.50;;;26.00;23.80;;;;;;5057808;28;20449;-77
2022/08/04 07:07:46;;;;;;;8.38;4.80;;;26.10;23.00;;;;;;5044333;28;21158;-78
2022/08/04 07:10:14;;;;;;;9.27;4.95;;;26.20;22.60;;;;;;5062427;28;20381;-76
2022/08/04 07:12:40;;;;;;;9.23;4.23;;;26.20;22.40;;;;;;5060980;28;20425;-78
2022/08/04 07:15:07;;;;;;;10.63;5.22;;;26.20;23.00;;;;;;5062112;28;20388;-77
2022/08/04 07:17:35;;;;;;;9.68;4.88;;;26.10;23.00;;;;;;5051502;28;20403;-78
2022/08/04 07:20:01;;;;;;;10.93;6.97;;;26.20;22.50;;;;;;5079318;28;20455;-77
2022/08/04 07:22:28;;;;;;;8.13;5.00;;;26.30;22.30;;;;;;5071693;28;20414;-76
2022/08/04 07:24:55;;;;;;;7.47;4.70;;;26.40;21.80;;;;;;5059881;28;20478;-77
2022/08/04 07:27:22;;;;;;;10.50;5.10;;;26.50;21.90;;;;;;5041636;28;20396;-79
2022/08/04 07:29:48;;;;;;;8.43;4.95;;;26.70;21.80;;;;;;5038428;28;20426;-76
2022/08/04 07:32:15;;;;;;;7.47;5.55;;;26.90;21.00;;;;;;5084525;28;20419;-77
2022/08/04 07:34:41;;;;;;;8.88;4.47;;;26.90;20.20;;;;;;5079588;28;20372;-77
2022/08/04 07:37:08;;;;;;;10.07;5.25;;;26.90;20.60;;;;;;5057489;28;20407;-79
2022/08/04 07:39:35;;;;;;;10.75;5.35;;;27.00;21.10;;;;;;5050533;28;20451;-78
2022/08/04 07:42:02;;;;;;;11.10;6.47;;;27.10;20.90;;;;;;5053400;28;20428;-78
2022/08/04 07:44:32;;;;;;;9.00;6.03;;;27.20;20.70;;;;;;5053244;28;20448;-78
2022/08/04 07:47:02;;;;;;;11.15;5.80;;;27.40;20.60;;;;;;5051638;28;20393;-78
2022/08/04 07:49:28;;;;;;;11.32;4.72;;;27.50;19.80;;;;;;5042090;28;20415;-79
2022/08/04 07:51:54;;;;;;;10.25;6.13;;;27.60;18.20;;;;;;5045562;28;20392;-78
2022/08/04 07:54:21;;;;;;;16.47;5.43;;;27.70;17.80;;;;;;5054001;28;20397;-78
2022/08/04 07:56:48;;;;;;;15.13;8.30;;;27.90;17.10;;;;;;5048912;28;20492;-78
2022/08/04 07:59:15;;;;;;;8.02;4.60;;;28.00;17.00;;;;;;5035412;28;20401;-77
2022/08/04 08:01:41;;;;;;;7.88;6.35;;;28.10;16.50;;;;;;5048816;28;20412;-77
2022/08/04 08:04:08;;;;;;;11.88;5.82;;;28.30;16.60;;;;;;5036373;28;20794;-77
2022/08/04 08:06:36;;;;;;;13.15;5.00;;;28.50;15.70;;;;;;5028716;28;20394;-77
2022/08/04 08:09:22;;;;;;;13.68;4.90;;;28.40;16.20;;;;;;5030220;28;20760;-78
2022/08/04 08:11:50;;;;;;;9.20;5.00;;;28.50;16.00;;;;;;5029877;28;20464;-78
2022/08/04 08:14:17;;;;;;;10.30;5.22;;;28.60;15.30;;;;;;5036845;28;20386;-76
2022/08/04 08:16:43;;;;;;;9.18;5.47;;;28.70;15.30;;;;;;5035441;28;20411;-77
2022/08/04 08:19:10;;;;;;;10.55;5.20;;;28.80;15.60;;;;;;5049586;28;20431;-77
2022/08/04 08:21:35;;;;;;;11.98;5.78;;;28.80;14.90;;;;;;5049107;28;20758;-77
2022/08/04 08:24:01;;;;;;;5.77;4.67;;;28.90;14.80;;;;;;5049464;28;20392;-76
2022/08/04 08:26:27;;;;;;;8.00;4.45;;;29.10;14.80;;;;;;5041778;28;20397;-76
2022/08/04 08:28:53;;;;;;;11.48;5.68;;;29.20;14.50;;;;;;5049174;28;20441;-76
2022/08/04 08:31:19;;;;;;;12.90;6.47;;;29.40;14.00;;;;;;5046301;28;20397;-76
2022/08/04 08:33:45;;;;;;;10.90;5.70;;;29.60;14.10;;;;;;5045868;28;20404;-77
2022/08/04 08:36:33;;;;;;;12.77;4.60;;;29.70;13.60;;;;;;5038426;28;20397;-77
2022/08/04 08:39:24;;;;;;;9.43;4.03;;;29.80;12.90;;;;;;5053392;28;20489;-78
2022/08/04 08:42:16;;;;;;;5.50;4.30;;;30.10;12.60;;;;;;5052637;28;20400;-77
2022/08/04 08:45:02;;;;;;;9.80;5.22;;;30.30;12.40;;;;;;5028805;28;20401;-77
2022/08/04 08:47:54;;;;;;;10.43;5.93;;;30.50;12.20;;;;;;5040723;28;20391;-79
2022/08/04 08:50:55;;;;;;;10.77;4.80;;;30.60;11.60;;;;;;5032308;28;20421;-77
2022/08/04 08:53:48;;;;;;;10.05;5.15;;;30.70;11.40;;;;;;5041596;28;20393;-77
2022/08/04 08:56:38;;;;;;;10.27;4.72;;;31.00;11.30;;;;;;5052304;28;20961;-77
2022/08/04 08:59:36;;;;;;;10.40;4.68;;;31.40;10.40;;;;;;5052667;28;20407;-76
2022/08/04 09:02:14;;;;;;;5.85;4.15;;;31.70;9.50;;;;;;5054182;28;20394;-77
2022/08/04 09:04:45;;;;;;;9.57;4.75;;;31.80;9.30;;;;;;5051148;28;20479;-78
2022/08/04 09:07:26;;;;;;;11.70;4.20;;;32.20;9.00;;;;;;5050639;28;20408;-77
2022/08/04 09:10:05;;;;;;;7.47;4.18;;;32.60;8.40;;;;;;5051599;28;20393;-77
2022/08/04 09:12:55;;;;;;;5.22;3.60;;;32.60;7.80;;;;;;5052135;28;20480;-77
2022/08/04 09:15:49;;;;;;;7.20;3.70;;;32.70;7.70;;;;;;5042199;28;20410;-77
2022/08/04 09:18:44;;;;;;;7.25;4.30;;;33.00;7.50;;;;;;5046188;28;20948;-77
2022/08/04 09:21:22;;;;;;;6.45;4.35;;;33.00;8.00;;;;;;5071739;28;20414;-77
2022/08/04 09:24:13;;;;;;;6.80;4.10;;;33.20;7.80;;;;;;5058108;28;20430;-77
2022/08/04 09:26:47;;;;;;;6.35;4.20;;;32.90;7.10;;;;;;5051655;28;20817;-77
2022/08/04 09:29:16;;;;;;;9.07;3.70;;;32.60;7.80;;;;;;5054419;28;20432;-78
2022/08/04 09:32:07;;;;;;;8.63;3.78;;;32.40;8.40;;;;;;5051018;28;20398;-77
2022/08/04 09:34:49;;;;;;;9.80;3.50;;;32.20;8.60;;;;;;5054851;28;20388;-76
2022/08/04 09:37:49;;;;;;;8.88;3.78;;;32.10;9.60;;;;;;5054444;28;20403;-77
2022/08/04 09:40:29;;;;;;;11.23;4.30;;;31.80;9.50;;;;;;5033072;28;20480;-77
2022/08/04 09:43:16;;;;;;;7.35;3.60;;;31.80;9.80;;;;;;5048703;28;20412;-77
2022/08/04 09:45:49;;;;;;;5.88;3.50;;;31.70;9.60;;;;;;5054262;28;20450;-79
2022/08/04 09:48:30;;;;;;;6.00;3.50;;;31.80;9.70;;;;;;5062415;28;20489;-77
2022/08/04 09:50:58;;;;;;;4.88;3.50;;;31.90;9.90;;;;;;5058394;28;20474;-79
2022/08/04 09:53:44;;;;;;;7.30;3.50;;;32.00;9.20;;;;;;5051863;28;20387;-76
2022/08/04 09:56:34;;;;;;;6.88;3.47;;;32.00;9.30;;;;;;5042594;28;20462;-74
2022/08/04 09:59:22;;;;;;;5.90;3.05;;;32.00;8.50;;;;;;5058133;28;20420;-77
2022/08/04 10:01:55;;;;;;;11.88;3.95;;;32.40;8.10;;;;;;5054554;28;20396;-79
2022/08/04 10:04:24;;;;;;;9.45;3.20;;;32.60;7.90;;;;;;5052084;28;20404;-79
2022/08/04 10:07:17;;;;;;;5.65;2.90;;;32.70;7.60;;;;;;5036847;28;20387;-79
2022/08/04 10:09:56;;;;;;;5.38;2.75;;;33.00;7.30;;;;;;5045842;28;20961;-78
2022/08/04 10:12:24;;;;;;;10.52;3.10;;;33.30;6.50;;;;;;5048661;28;20995;-78
2022/08/04 10:15:15;;;;;;;10.00;3.40;;;33.60;6.60;;;;;;5059210;28;20453;-79
2022/08/04 10:17:53;;;;;;;5.80;2.90;;;33.90;5.90;;;;;;5063729;28;20398;-78
2022/08/04 10:20:54;;;;;;;9.90;3.30;;;34.20;5.70;;;;;;5048486;28;20410;-80
2022/08/04 10:23:33;;;;;;;8.70;3.00;;;34.30;5.30;;;;;;5043990;28;20929;-80
2022/08/04 10:26:19;;;;;;;10.40;3.20;;;34.30;5.40;;;;;;5038572;28;20509;-77
2022/08/04 10:29:06;;;;;;;8.63;2.80;;;34.30;5.90;;;;;;5039616;28;20419;-79
2022/08/04 10:31:45;;;;;;;11.38;3.00;;;34.70;4.80;;;;;;5041258;28;20773;-79
2022/08/04 10:34:20;;;;;;;12.25;2.78;;;34.80;4.40;;;;;;5064750;28;20913;-79
2022/08/04 10:37:25;;;;;;;9.02;3.28;;;34.70;4.00;;;;;;5074402;28;20411;-79
2022/08/04 10:43:02;;;;;;;15.98;3.17;;;34.60;4.30;;;;;;5048760;28;20438;-79
2022/08/04 10:45:43;;;;;;;9.02;2.72;;;34.70;4.90;;;;;;5036948;28;20736;-78
2022/08/04 10:48:35;;;;;;;14.68;3.30;;;34.30;5.70;;;;;;5052573;28;20740;-80
2022/08/04 10:51:10;;;;;;;10.93;3.17;;;34.20;5.90;;;;;;5040025;28;20402;-80
2022/08/04 10:53:38;;;;;;;9.00;3.10;;;34.40;5.70;;;;;;5040781;28;20395;-79
2022/08/04 10:56:12;;;;;;;11.88;3.05;;;34.40;5.70;;;;;;5053057;28;20720;-76
2022/08/04 10:59:07;;;;;;;10.50;3.10;;;34.30;5.30;;;;;;5068722;28;20663;-78
2022/08/04 11:01:39;;;;;;;11.00;3.03;;;34.30;5.60;;;;;;5057563;28;20417;-77
2022/08/04 11:04:14;;;;;;;9.20;2.95;;;34.50;5.30;;;;;;5075078;28;20881;-78
2022/08/04 11:06:42;;;;;;;7.32;2.67;;;34.70;5.30;;;;;;5066579;28;20383;-78
2022/08/04 11:09:08;;;;;;;9.80;3.00;;;34.60;5.00;;;;;;5080566;28;20437;-80
2022/08/04 11:11:45;;;;;;;10.20;2.87;;;34.70;4.90;;;;;;5052232;28;20418;-78
2022/08/04 11:14:12;;;;;;;8.70;2.80;;;35.10;5.10;;;;;;5041434;28;20402;-75
2022/08/04 11:16:53;;;;;;;10.03;2.80;;;35.10;5.00;;;;;;5055949;28;20412;-76
2022/08/04 11:19:47;;;;;;;5.55;2.50;;;35.10;5.10;;;;;;5055285;28;20392;-75
2022/08/04 11:22:25;;;;;;;5.20;2.22;;;34.80;4.10;;;;;;5052094;28;20757;-75
2022/08/04 11:25:13;;;;;;;5.67;2.80;;;34.50;4.60;;;;;;5056551;28;20388;-76
2022/08/04 11:28:14;;;;;;;10.27;3.10;;;34.40;4.90;;;;;;5054688;28;20378;-76
2022/08/04 11:30:58;;;;;;;5.00;2.80;;;34.30;5.90;;;;;;5052567;28;20388;-77
2022/08/04 11:33:46;;;;;;;12.63;3.22;;;33.90;6.40;;;;;;5053512;28;20372;-77
2022/08/04 11:36:29;;;;;;;6.03;3.10;;;33.00;7.40;;;;;;5055901;28;20444;-77
2022/08/04 11:39:06;;;;;;;6.63;2.90;;;32.30;8.50;;;;;;5068879;28;20422;-76
2022/08/04 11:41:38;;;;;;;9.18;2.60;;;32.00;9.20;;;;;;5068472;28;20389;-76
2022/08/04 11:44:04;;;;;;;8.43;2.78;;;31.90;9.00;;;;;;5069709;28;20414;-76
2022/08/04 11:46:45;;;;;;;6.85;3.00;;;31.90;9.00;;;;;;5062190;28;20406;-77
2022/08/04 11:49:20;;;;;;;8.63;2.90;;;32.00;9.20;;;;;;5055198;28;20785;-78
2022/08/04 11:51:49;;;;;;;7.00;2.90;;;32.20;9.40;;;;;;5055834;28;20389;-77
2022/08/04 11:54:15;;;;;;;5.60;2.70;;;32.00;9.80;;;;;;5057296;28;20845;-77
2022/08/04 11:56:41;;;;;;;6.45;2.97;;;31.80;9.90;;;;;;5054300;28;20413;-76
2022/08/04 11:59:07;;;;;;;7.53;2.90;;;31.70;10.10;;;;;;5054133;28;20882;-78
2022/08/04 12:01:33;;;;;;;6.72;3.10;;;31.70;9.90;;;;;;5053906;28;20406;-78
2022/08/04 12:04:04;;;;;;;7.35;2.90;;;31.70;9.60;;;;;;5052592;28;20382;-78
2022/08/04 12:06:42;;;;;;;26.35;5.05;;;31.70;9.60;;;;;;5053708;28;20901;-78
2022/08/04 12:09:11;;;;;;;6.10;2.47;;;31.70;9.50;;;;;;5052971;28;20920;-77
2022/08/04 12:12:01;;;;;;;3.25;2.47;;;31.50;9.80;;;;;;5052659;28;20421;-77
2022/08/04 12:14:50;;;;;;;5.32;2.70;;;31.40;10.30;;;;;;5055214;28;20450;-79
2022/08/04 12:17:26;;;;;;;6.22;3.08;;;31.80;9.30;;;;;;5062145;28;20412;-76
2022/08/04 12:19:57;;;;;;;7.68;3.00;;;32.20;8.60;;;;;;5061518;28;20412;-76
2022/08/04 12:22:25;;;;;;;6.17;3.20;;;32.60;9.10;;;;;;5062068;28;20424;-76
2022/08/04 12:24:58;;;;;;;3.78;2.80;;;32.50;9.20;;;;;;5057730;28;20472;-77
2022/08/04 12:27:30;;;;;;;8.93;2.90;;;32.20;9.50;;;;;;5059185;28;20385;-77
2022/08/04 12:29:57;;;;;;;9.57;3.20;;;32.10;10.00;;;;;;5061254;28;20389;-77
2022/08/04 12:32:36;;;;;;;7.78;3.55;;;32.00;10.60;;;;;;5067310;28;20381;-75
2022/08/04 12:35:26;;;;;;;8.68;3.20;;;32.00;11.30;;;;;;5061769;28;20377;-77
2022/08/04 12:38:03;;;;;;;9.88;3.50;;;31.90;11.20;;;;;;5054285;28;20422;-78
2022/08/04 12:40:47;;;;;;;7.03;3.65;;;32.00;11.60;;;;;;5053699;28;20460;-77
2022/08/04 12:43:37;;;;;;;6.15;3.10;;;32.30;11.50;;;;;;5054296;28;20747;-78
2022/08/04 12:46:06;;;;;;;5.65;3.05;;;32.50;10.80;;;;;;5059201;28;20460;-78
2022/08/04 12:48:34;;;;;;;6.72;3.33;;;32.40;10.60;;;;;;5055253;28;20400;-77
2022/08/04 12:51:00;;;;;;;8.48;3.00;;;31.90;11.60;;;;;;5053351;28;20404;-79
2022/08/04 12:53:31;;;;;;;4.80;3.50;;;32.00;11.20;;;;;;5054624;28;20377;-78
2022/08/04 12:55:58;;;;;;;10.07;3.38;;;32.10;11.60;;;;;;5054935;28;20393;-77
2022/08/04 12:58:27;;;;;;;6.50;2.70;;;32.60;10.40;;;;;;5053596;28;20800;-76
2022/08/04 13:01:20;;;;;;;4.82;3.00;;;32.30;9.80;;;;;;5053100;28;20408;-77
2022/08/04 13:03:54;;;;;;;6.50;3.10;;;32.20;11.00;;;;;;5047811;28;20456;-78
2022/08/04 13:06:26;;;;;;;3.70;2.80;;;32.10;10.60;;;;;;5059395;28;20491;-77
2022/08/04 13:08:53;;;;;;;8.97;3.43;;;32.00;10.80;;;;;;5055533;28;20591;-77
2022/08/04 13:11:21;;;;;;;9.90;3.00;;;32.30;10.80;;;;;;5055199;28;20845;-77
2022/08/04 13:13:52;;;;;;;7.78;3.10;;;32.50;9.80;;;;;;5056192;28;20958;-77
2022/08/04 13:16:27;;;;;;;5.45;3.15;;;32.30;9.70;;;;;;5058933;28;20373;-77
2022/08/04 13:18:53;;;;;;;11.55;3.30;;;32.20;10.40;;;;;;5056436;28;20493;-77
2022/08/04 13:21:22;;;;;;;5.88;2.97;;;32.30;10.00;;;;;;5055873;28;20690;-80
2022/08/04 13:23:51;;;;;;;7.00;3.20;;;32.40;9.70;;;;;;5057291;28;20732;-78
2022/08/04 13:26:18;;;;;;;5.97;2.97;;;32.50;9.40;;;;;;5064138;28;20732;-77
2022/08/04 13:28:48;;;;;;;5.47;2.63;;;32.50;8.50;;;;;;5060510;28;20397;-75
2022/08/04 13:31:17;;;;;;;7.03;2.90;;;32.50;8.60;;;;;;5059857;28;20396;-76
2022/08/04 13:33:46;;;;;;;5.55;2.53;;;32.30;7.80;;;;;;5060434;28;20811;-76
2022/08/04 13:36:13;;;;;;;10.52;3.05;;;32.30;8.20;;;;;;5061214;28;20390;-76
2022/08/04 13:38:47;;;;;;;6.20;3.20;;;32.30;8.70;;;;;;5065240;28;20515;-77
2022/08/04 13:41:15;;;;;;;5.55;3.15;;;32.40;8.60;;;;;;5060412;28;20389;-79
2022/08/04 13:43:47;;;;;;;10.50;3.40;;;32.60;8.80;;;;;;5065329;28;20382;-76